Time;durP1;ratioP1;P1;durP2;ratioP2;P2;SDS_P1;SDS_P2;PMS_P1;PMS_P2;Temp;Humidity;BMP_temperature;BMP_pressure;BME280_temperature;BME280_humidity;BME280_pressure;Samples;Min_cycle;Max_cycle;Signal;HPM_P1;HPM_P2
2022/11/13 00:00:23;;;;;;;31.33;27.88;;;;;;;4.81;100.00;102494.16;6156858;23;20301;-86
2022/11/13 00:02:49;;;;;;;29.67;26.08;;;;;;;4.77;100.00;102486.25;6156280;23;20080;-85
2022/11/13 00:05:14;;;;;;;29.15;26.17;;;;;;;4.75;100.00;102502.03;6155467;23;20012;-86
2022/11/13 00:07:39;;;;;;;29.85;26.15;;;;;;;4.72;100.00;102500.31;6154800;23;20008;-86
2022/11/13 00:10:05;;;;;;;28.73;25.73;;;;;;;4.63;100.00;102496.78;6154261;23;20077;-86
2022/11/13 00:12:30;;;;;;;27.45;24.55;;;;;;;4.58;100.00;102490.63;6156252;23;20116;-86
2022/11/13 00:14:56;;;;;;;28.02;24.02;;;;;;;4.54;100.00;102496.78;6155427;23;20008;-86
2022/11/13 00:17:21;;;;;;;27.38;24.65;;;;;;;4.50;100.00;102487.97;6154012;23;20447;-87
2022/11/13 00:19:46;;;;;;;28.08;24.75;;;;;;;4.35;100.00;102465.13;6155591;23;20044;-85
2022/11/13 00:22:11;;;;;;;26.77;23.85;;;;;;;4.38;100.00;102478.28;6155215;23;20036;-86
2022/11/13 00:24:37;;;;;;;28.73;24.73;;;;;;;4.32;100.00;102480.94;6155651;23;20010;-86
2022/11/13 00:27:02;;;;;;;26.60;23.83;;;;;;;4.30;100.00;102487.06;6155669;23;20088;-86
2022/11/13 00:29:27;;;;;;;27.92;24.10;;;;;;;4.28;100.00;102483.56;6169226;23;20012;-87
2022/11/13 00:31:53;;;;;;;25.10;22.50;;;;;;;4.18;100.00;102472.13;6172562;23;20075;-87
2022/11/13 00:34:18;;;;;;;27.17;24.35;;;;;;;4.17;100.00;102476.50;6142314;23;20017;-87
2022/11/13 00:36:43;;;;;;;28.00;24.13;;;;;;;4.05;100.00;102471.22;6101754;23;19998;-86
2022/11/13 00:39:09;;;;;;;27.15;24.23;;;;;;;3.99;100.00;102466.81;6125408;23;20041;-87
2022/11/13 00:41:34;;;;;;;25.67;23.08;;;;;;;4.04;100.00;102471.22;6125457;23;20085;-87
2022/11/13 00:43:59;;;;;;;26.83;24.02;;;;;;;4.00;100.00;102462.44;6124769;23;20325;-88
2022/11/13 00:46:24;;;;;;;25.77;23.13;;;;;;;3.92;100.00;102462.41;6126443;23;19998;-86
2022/11/13 00:48:50;;;;;;;29.10;23.40;;;;;;;3.79;100.00;102452.72;6125209;23;20001;-87
2022/11/13 00:51:15;;;;;;;25.30;22.60;;;;;;;3.72;100.00;102466.72;6099893;23;20500;-87
2022/11/13 00:53:40;;;;;;;24.70;22.15;;;;;;;3.73;100.00;102461.50;6124791;23;20033;-87
2022/11/13 00:56:06;;;;;;;25.77;23.08;;;;;;;3.66;100.00;102446.53;6124191;23;20072;-87
2022/11/13 00:58:31;;;;;;;26.40;23.33;;;;;;;3.53;100.00;102449.13;6123949;23;20029;-87
2022/11/13 01:01:04;;;;;;;27.05;24.25;;;;;;;3.53;100.00;102438.59;6123100;23;20009;-86
2022/11/13 01:03:29;;;;;;;27.27;24.38;;;;;;;3.60;100.00;102462.31;6124159;23;20009;-87
2022/11/13 01:05:54;;;;;;;26.02;23.23;;;;;;;3.54;100.00;102451.75;6124136;23;20006;-87
2022/11/13 01:08:19;;;;;;;24.65;22.05;;;;;;;3.60;100.00;102456.19;6123072;23;20009;-86
2022/11/13 01:10:47;;;;;;;25.95;23.23;;;;;;;3.59;100.00;102457.91;6123726;23;20010;-86
2022/11/13 01:13:12;;;;;;;26.17;23.40;;;;;;;3.58;100.00;102455.28;6122974;23;20032;-87
2022/11/13 01:15:43;;;;;;;26.70;23.90;;;;;;;3.55;100.00;102450.00;6123395;23;20010;-86
2022/11/13 01:18:09;;;;;;;26.42;23.60;;;;;;;3.50;100.00;102456.13;6096292;23;20093;-87
2022/11/13 01:20:34;;;;;;;24.77;21.92;;;;;;;3.41;100.00;102448.19;6121972;23;20394;-87
2022/11/13 01:23:00;;;;;;;25.08;22.48;;;;;;;3.50;100.00;102445.59;6122578;23;20009;-87
2022/11/13 01:25:26;;;;;;;24.95;22.38;;;;;;;3.48;100.00;102442.09;6122897;23;20002;-86
2022/11/13 01:27:51;;;;;;;24.85;22.23;;;;;;;3.45;100.00;102434.16;6121707;23;20017;-85
2022/11/13 01:30:16;;;;;;;24.20;21.73;;;;;;;3.43;100.00;102438.56;6122575;23;20006;-86
2022/11/13 01:32:42;;;;;;;24.80;22.30;;;;;;;3.42;100.00;102434.16;6123127;23;20010;-87
2022/11/13 01:35:07;;;;;;;23.85;21.35;;;;;;;3.44;100.00;102431.53;6097141;23;20073;-87
2022/11/13 01:37:32;;;;;;;28.20;24.38;;;;;;;3.46;100.00;102441.19;6095823;23;20033;-87
2022/11/13 01:39:58;;;;;;;24.10;21.17;;;;;;;3.35;100.00;102432.38;6123165;23;20065;-86
2022/11/13 01:42:23;;;;;;;23.10;20.65;;;;;;;3.36;100.00;102439.41;6122466;23;20332;-86
2022/11/13 01:44:53;;;;;;;25.70;21.73;;;;;;;3.32;100.00;102444.66;6122134;23;20013;-86
2022/11/13 01:47:20;;;;;;;24.77;22.15;;;;;;;3.36;100.00;102431.50;6122769;23;20009;-86
2022/11/13 01:49:47;;;;;;;24.38;21.77;;;;;;;3.26;100.00;102434.97;6123451;23;20013;-87
2022/11/13 01:52:23;;;;;;;24.83;22.13;;;;;;;3.24;100.00;102427.06;6097677;23;20008;-86
2022/11/13 01:55:09;;;;;;;23.42;20.98;;;;;;;3.20;100.00;102427.91;6097626;23;20010;-86
2022/11/13 01:57:35;;;;;;;22.17;19.83;;;;;;;3.18;100.00;102424.41;6095148;23;19990;-87
2022/11/13 02:00:05;;;;;;;21.95;19.80;;;;;;;3.16;100.00;102422.63;6091870;23;20019;-86
2022/11/13 02:02:30;;;;;;;21.70;19.45;;;;;;;3.17;100.00;102420.00;6092552;23;20006;-87
2022/11/13 02:04:55;;;;;;;22.88;20.60;;;;;;;3.13;100.00;102425.25;6092333;23;20017;-86
2022/11/13 02:07:22;;;;;;;25.27;21.30;;;;;;;3.14;100.00;102409.47;6092334;23;20006;-86
2022/11/13 02:09:50;;;;;;;22.98;20.67;;;;;;;3.17;100.00;102422.63;6094066;23;20013;-88
2022/11/13 02:12:40;;;;;;;22.98;20.67;;;;;;;3.12;100.00;102403.31;6094381;23;20010;-85
2022/11/13 02:15:06;;;;;;;22.77;20.42;;;;;;;3.12;100.00;102411.22;6101137;23;20003;-86
2022/11/13 02:17:39;;;;;;;22.92;20.63;;;;;;;3.11;100.00;102395.44;6116608;23;20064;-86
2022/11/13 02:20:05;;;;;;;23.13;20.63;;;;;;;3.12;100.00;102386.66;6116783;23;20006;-86
2022/11/13 02:22:48;;;;;;;23.15;20.67;;;;;;;3.15;100.00;102399.84;6115131;23;20006;-86
2022/11/13 02:25:15;;;;;;;23.05;20.70;;;;;;;3.13;100.00;102393.66;6096916;23;20010;-86
2022/11/13 02:27:44;;;;;;;22.27;20.02;;;;;;;3.09;100.00;102395.41;6094060;23;20007;-86
2022/11/13 02:30:31;;;;;;;24.35;20.25;;;;;;;3.05;100.00;102383.09;6096456;23;20547;-87
2022/11/13 02:32:57;;;;;;;22.05;19.73;;;;;;;3.05;100.00;102377.84;6097614;23;20002;-86
2022/11/13 02:35:28;;;;;;;21.92;19.67;;;;;;;3.10;100.00;102384.03;6097301;23;20433;-87
2022/11/13 02:37:58;;;;;;;23.48;21.08;;;;;;;2.98;100.00;102370.81;6096024;23;20448;-86
2022/11/13 02:40:24;;;;;;;24.48;21.92;;;;;;;3.00;100.00;102372.56;6093061;23;20695;-86
2022/11/13 02:42:49;;;;;;;23.02;20.73;;;;;;;3.03;100.00;102365.56;6094465;23;20106;-87
2022/11/13 02:45:14;;;;;;;21.92;19.70;;;;;;;3.08;100.00;102382.25;6093425;23;20386;-87
2022/11/13 02:47:40;;;;;;;21.63;19.40;;;;;;;3.08;100.00;102377.00;6092816;23;20426;-86
2022/11/13 02:50:06;;;;;;;21.98;19.75;;;;;;;2.96;100.00;102370.78;6093260;23;20463;-88
2022/11/13 02:52:32;;;;;;;20.73;18.73;;;;;;;2.97;100.00;102364.69;6095413;23;20014;-87
2022/11/13 02:54:57;;;;;;;22.00;19.70;;;;;;;2.92;100.00;102373.41;6094314;23;20014;-87
2022/11/13 02:57:22;;;;;;;21.80;19.55;;;;;;;2.82;100.00;102375.13;6093963;23;20187;-87
2022/11/13 02:59:48;;;;;;;21.88;19.58;;;;;;;2.88;100.00;102361.97;6118510;23;20070;-86
2022/11/13 03:02:13;;;;;;;20.55;18.52;;;;;;;2.95;100.00;102384.81;6123541;23;20002;-86
2022/11/13 03:04:38;;;;;;;20.70;18.50;;;;;;;2.87;100.00;102354.97;6123866;23;20005;-86
2022/11/13 03:07:04;;;;;;;22.05;19.80;;;;;;;3.02;100.00;102367.34;6123969;23;20037;-86
2022/11/13 03:09:29;;;;;;;22.20;19.95;;;;;;;3.11;100.00;102370.00;6124753;23;20495;-85
2022/11/13 03:11:54;;;;;;;20.95;18.83;;;;;;;3.00;100.00;102350.66;6125591;23;20443;-86
2022/11/13 03:14:20;;;;;;;20.50;18.50;;;;;;;3.00;100.00;102356.78;6098700;23;20016;-86
2022/11/13 03:16:45;;;;;;;20.30;18.20;;;;;;;3.16;100.00;102367.38;6124187;23;20077;-86
2022/11/13 03:19:11;;;;;;;20.92;18.73;;;;;;;3.25;100.00;102351.63;6124029;23;20006;-88
2022/11/13 03:21:36;;;;;;;21.05;18.90;;;;;;;3.30;100.00;102336.72;6099878;23;20006;-87
2022/11/13 03:24:01;;;;;;;21.55;19.33;;;;;;;3.42;100.00;102346.41;6125821;23;20012;-87
2022/11/13 03:26:27;;;;;;;19.85;17.75;;;;;;;3.42;100.00;102338.50;6096711;23;20010;-87
2022/11/13 03:28:53;;;;;;;19.92;17.92;;;;;;;3.64;100.00;102350.00;6124174;23;20036;-86
2022/11/13 03:31:19;;;;;;;19.23;17.40;;;;;;;3.69;100.00;102348.25;6124287;23;20001;-86
2022/11/13 03:33:44;;;;;;;19.85;17.83;;;;;;;3.76;100.00;102355.25;6131371;23;20006;-84
2022/11/13 03:36:09;;;;;;;19.90;17.88;;;;;;;3.77;100.00;102346.50;6118248;23;20059;-87
2022/11/13 03:38:34;;;;;;;19.25;17.35;;;;;;;3.84;100.00;102345.59;6143452;23;20038;-87
2022/11/13 03:41:00;;;;;;;18.52;16.67;;;;;;;3.92;100.00;102346.50;6137542;23;20417;-86
2022/11/13 03:43:25;;;;;;;17.65;15.88;;;;;;;3.93;100.00;102343.00;6127243;23;20018;-86
2022/11/13 03:45:51;;;;;;;18.02;16.15;;;;;;;4.00;100.00;102342.09;6124650;23;20006;-86
2022/11/13 03:48:16;;;;;;;17.95;16.08;;;;;;;4.08;100.00;102346.50;6126328;23;20002;-86
2022/11/13 03:50:45;;;;;;;17.73;16.00;;;;;;;4.04;100.00;102340.34;6099324;23;20001;-88
2022/11/13 03:53:11;;;;;;;17.13;15.43;;;;;;;3.88;100.00;102315.75;6125485;23;20002;-86
2022/11/13 03:55:36;;;;;;;17.25;15.55;;;;;;;3.97;100.00;102333.31;6125097;23;20001;-86
2022/11/13 03:58:02;;;;;;;18.92;16.52;;;;;;;3.92;100.00;102321.91;6126410;23;20002;-86
2022/11/13 04:00:29;;;;;;;17.63;15.95;;;;;;;3.97;100.00;102321.06;6125656;23;20009;-87
2022/11/13 04:02:54;;;;;;;17.08;15.38;;;;;;;4.02;100.00;102326.31;6099433;23;20572;-87
2022/11/13 04:05:19;;;;;;;19.30;15.93;;;;;;;4.07;100.00;102328.94;6124544;23;20009;-85
2022/11/13 04:07:45;;;;;;;17.38;15.65;;;;;;;4.02;100.00;102314.91;6125631;23;20004;-87
2022/11/13 04:10:10;;;;;;;16.60;14.90;;;;;;;4.03;100.00;102329.84;6097688;23;20013;-86
2022/11/13 04:12:35;;;;;;;16.20;14.70;;;;;;;3.98;100.00;102317.53;6124170;23;20010;-87
2022/11/13 04:15:00;;;;;;;16.13;14.60;;;;;;;3.94;100.00;102315.78;6123073;23;20424;-86
2022/11/13 04:17:26;;;;;;;16.48;14.77;;;;;;;3.95;100.00;102317.53;6123322;23;20505;-86
2022/11/13 04:19:51;;;;;;;16.98;15.23;;;;;;;3.91;100.00;102312.25;6123863;23;20084;-86
2022/11/13 04:22:16;;;;;;;18.27;16.38;;;;;;;3.91;100.00;102312.25;6124790;23;20360;-87
2022/11/13 04:24:41;;;;;;;17.92;16.05;;;;;;;3.85;100.00;102305.25;6123902;23;20001;-87
2022/11/13 04:27:07;;;;;;;17.48;15.63;;;;;;;3.82;100.00;102301.72;6123755;23;20001;-86
2022/11/13 04:29:32;;;;;;;17.30;15.60;;;;;;;3.79;100.00;102296.44;6098375;23;20010;-87
2022/11/13 04:31:57;;;;;;;18.42;16.55;;;;;;;3.78;100.00;102292.94;6124370;23;20089;-86
2022/11/13 04:34:22;;;;;;;16.17;14.68;;;;;;;3.80;100.00;102292.94;6123826;23;20183;-86
2022/11/13 04:36:48;;;;;;;17.75;15.77;;;;;;;3.68;100.00;102284.16;6096923;23;20010;-86
2022/11/13 04:39:13;;;;;;;17.05;15.45;;;;;;;3.68;100.00;102292.06;6124846;23;20014;-86
2022/11/13 04:44:22;;;;;;;;;;;;;;;3.68;100.00;102299.09;6137247;23;20021;-87
2022/11/13 04:46:47;;;;;;;17.80;16.00;;;;;;;3.69;100.00;102279.78;6135269;23;19909;-87
2022/11/13 04:49:13;;;;;;;18.08;16.23;;;;;;;3.73;100.00;102292.06;6130992;23;20001;-87
2022/11/13 04:51:38;;;;;;;17.25;15.45;;;;;;;3.71;100.00;102283.28;6126244;23;20006;-86
2022/11/13 04:54:03;;;;;;;17.70;15.95;;;;;;;3.72;100.00;102282.38;6132257;23;20413;-85
2022/11/13 04:56:29;;;;;;;17.13;15.43;;;;;;;3.64;100.00;102281.53;6106833;23;20067;-86
2022/11/13 04:58:54;;;;;;;17.88;16.02;;;;;;;3.53;100.00;102272.75;6134209;23;20052;-85
2022/11/13 05:01:19;;;;;;;17.90;16.10;;;;;;;3.54;100.00;102271.84;6137822;23;20006;-86
2022/11/13 05:03:44;;;;;;;18.90;16.88;;;;;;;3.56;100.00;102278.03;6127121;23;20002;-87
2022/11/13 05:06:10;;;;;;;18.25;16.35;;;;;;;3.48;100.00;102281.50;6123887;23;20009;-86
2022/11/13 05:08:36;;;;;;;17.20;15.40;;;;;;;3.39;100.00;102278.00;6124370;23;20077;-87
2022/11/13 05:11:02;;;;;;;17.13;15.43;;;;;;;3.33;100.00;102278.84;6124814;23;20033;-87
2022/11/13 05:13:32;;;;;;;16.75;15.05;;;;;;;3.29;100.00;102284.97;6123681;23;20073;-86
2022/11/13 05:16:06;;;;;;;18.45;15.73;;;;;;;3.27;100.00;102275.34;6096125;23;20012;-86
2022/11/13 05:18:33;;;;;;;20.50;16.80;;;;;;;3.22;100.00;102272.69;6123529;23;20073;-85
2022/11/13 05:20:59;;;;;;;18.58;16.58;;;;;;;3.27;100.00;102273.59;6122675;23;20009;-86
2022/11/13 05:23:24;;;;;;;18.05;16.15;;;;;;;3.17;100.00;102261.25;6123149;23;20005;-86
2022/11/13 05:25:50;;;;;;;18.23;16.00;;;;;;;3.15;100.00;102263.03;6123247;23;20034;-87
2022/11/13 05:28:15;;;;;;;17.63;15.82;;;;;;;3.06;100.00;102253.34;6122333;23;20005;-87
2022/11/13 05:30:41;;;;;;;18.58;16.58;;;;;;;3.02;100.00;102251.59;6097188;23;20012;-87
2022/11/13 05:33:06;;;;;;;19.33;17.33;;;;;;;3.01;100.00;102255.09;6122585;23;20017;-87
2022/11/13 05:35:32;;;;;;;17.70;15.90;;;;;;;2.99;100.00;102249.81;6122071;23;20010;-87
2022/11/13 05:38:00;;;;;;;17.60;15.80;;;;;;;2.88;100.00;102243.63;6124262;23;20174;-85
2022/11/13 05:40:27;;;;;;;16.42;14.73;;;;;;;2.85;100.00;102243.66;6130466;23;20029;-87
2022/11/13 05:42:54;;;;;;;19.80;17.70;;;;;;;2.95;100.00;102245.44;6104911;23;20032;-87
2022/11/13 05:45:19;;;;;;;18.42;16.50;;;;;;;2.89;100.00;102242.78;6134336;23;20316;-87
2022/11/13 05:47:45;;;;;;;18.08;16.17;;;;;;;2.92;100.00;102234.00;6133278;23;20017;-86
2022/11/13 05:50:10;;;;;;;18.70;16.77;;;;;;;2.90;100.00;102238.41;6123782;23;20014;-86
2022/11/13 05:52:35;;;;;;;18.60;16.60;;;;;;;2.86;100.00;102239.28;6123734;23;20036;-86
2022/11/13 05:55:01;;;;;;;18.48;16.55;;;;;;;2.67;100.00;102235.69;6123728;23;20107;-87
2022/11/13 05:57:26;;;;;;;18.70;16.73;;;;;;;2.65;100.00;102230.44;6124456;23;20009;-86
2022/11/13 05:59:51;;;;;;;18.75;16.92;;;;;;;2.63;100.00;102231.28;6123712;23;20013;-86
2022/11/13 06:02:17;;;;;;;18.58;16.55;;;;;;;2.54;100.00;102224.22;6123823;23;20483;-88
2022/11/13 06:04:42;;;;;;;18.25;16.30;;;;;;;2.49;100.00;102226.84;6096672;23;20013;-87
2022/11/13 06:07:07;;;;;;;17.50;15.90;;;;;;;2.50;100.00;102243.50;6123790;23;20384;-87
2022/11/13 06:09:32;;;;;;;18.50;16.60;;;;;;;2.41;100.00;102228.56;6124188;23;20093;-87
2022/11/13 06:11:58;;;;;;;16.75;15.07;;;;;;;2.39;100.00;102224.19;6123862;23;20009;-87
2022/11/13 06:14:23;;;;;;;16.85;15.20;;;;;;;2.34;100.00;102218.91;6123650;23;19997;-87
2022/11/13 06:16:48;;;;;;;17.75;15.88;;;;;;;2.33;100.00;102229.38;6097639;23;20632;-87
2022/11/13 06:19:14;;;;;;;17.83;15.93;;;;;;;2.23;100.00;102224.09;6096217;23;20433;-87
2022/11/13 06:21:39;;;;;;;17.88;16.08;;;;;;;2.20;100.00;102228.44;6122641;23;20005;-87
2022/11/13 06:24:06;;;;;;;18.55;16.70;;;;;;;2.07;100.00;102211.75;6120008;23;20006;-87
2022/11/13 06:26:34;;;;;;;17.65;15.93;;;;;;;2.13;100.00;102222.28;6123981;23;20017;-87
2022/11/13 06:29:02;;;;;;;17.52;15.70;;;;;;;2.06;100.00;102217.88;6122804;23;20044;-86
2022/11/13 06:31:29;;;;;;;18.17;16.38;;;;;;;1.98;100.00;102223.06;6124047;23;19994;-87
2022/11/13 06:33:56;;;;;;;19.27;17.27;;;;;;;2.05;100.00;102231.88;6125628;23;20017;-86
2022/11/13 06:36:25;;;;;;;18.30;16.42;;;;;;;2.00;100.00;102225.69;6122570;23;20012;-87
2022/11/13 06:38:50;;;;;;;22.17;19.02;;;;;;;1.99;100.00;102223.94;6122873;23;20006;-87
2022/11/13 06:41:18;;;;;;;19.70;17.67;;;;;;;1.99;100.00;102224.81;6095938;23;20587;-87
2022/11/13 06:43:46;;;;;;;19.00;17.02;;;;;;;1.91;100.00;102226.50;6094889;23;20009;-85
2022/11/13 06:46:22;;;;;;;19.60;17.52;;;;;;;1.92;100.00;102228.28;6123048;23;20002;-86
2022/11/13 06:48:48;;;;;;;18.80;16.90;;;;;;;1.85;100.00;102209.84;6123381;23;20133;-87
2022/11/13 06:51:16;;;;;;;19.15;17.33;;;;;;;1.86;100.00;102216.84;6123483;23;20029;-86
2022/11/13 06:53:41;;;;;;;18.83;16.85;;;;;;;1.88;100.00;102217.72;6123979;23;20016;-86
2022/11/13 06:56:07;;;;;;;18.83;16.92;;;;;;;1.85;100.00;102201.97;6096769;23;20102;-86
2022/11/13 06:58:32;;;;;;;17.90;16.30;;;;;;;1.79;100.00;102215.91;6127964;23;20009;-87
2022/11/13 07:01:05;;;;;;;18.88;16.95;;;;;;;1.80;100.00;102214.16;6133411;23;20060;-87
2022/11/13 07:03:30;;;;;;;20.65;18.45;;;;;;;1.84;100.00;102229.06;6104030;23;20009;-86
2022/11/13 07:05:55;;;;;;;19.40;17.38;;;;;;;1.75;100.00;102209.75;6134387;23;20306;-86
2022/11/13 07:08:21;;;;;;;18.23;16.48;;;;;;;1.68;100.00;102228.97;6131759;23;20009;-87
2022/11/13 07:10:54;;;;;;;18.98;17.08;;;;;;;1.79;100.00;102228.16;6107449;23;20439;-86
2022/11/13 07:13:20;;;;;;;19.55;17.55;;;;;;;1.80;100.00;102228.19;6135304;23;20010;-87
2022/11/13 07:15:45;;;;;;;19.75;16.70;;;;;;;1.81;100.00;102224.69;6131132;23;20021;-86
2022/11/13 07:18:11;;;;;;;20.42;18.30;;;;;;;1.79;100.00;102218.53;6128957;23;20010;-87
2022/11/13 07:20:36;;;;;;;19.80;17.80;;;;;;;1.85;100.00;102220.34;6125512;23;20487;-87
2022/11/13 07:23:02;;;;;;;18.80;16.67;;;;;;;1.76;100.00;102213.28;6098252;23;20060;-87
2022/11/13 07:25:29;;;;;;;20.40;18.25;;;;;;;1.84;100.00;102208.97;6125501;23;20014;-87
2022/11/13 07:27:54;;;;;;;19.48;17.48;;;;;;;1.85;100.00;102208.09;6102641;23;20425;-86
2022/11/13 07:30:20;;;;;;;20.52;18.48;;;;;;;1.91;100.00;102205.50;6133994;23;20012;-85
2022/11/13 07:32:45;;;;;;;21.23;19.00;;;;;;;1.92;100.00;102193.25;6104644;23;20496;-87
2022/11/13 07:35:11;;;;;;;19.08;17.20;;;;;;;1.94;100.00;102196.78;6130029;23;20005;-86
2022/11/13 07:37:37;;;;;;;20.67;18.27;;;;;;;1.87;100.00;102184.47;6124355;23;20436;-87
2022/11/13 07:40:03;;;;;;;19.30;17.40;;;;;;;1.92;100.00;102198.50;6124746;23;20017;-87
2022/11/13 07:42:29;;;;;;;20.30;18.23;;;;;;;1.96;100.00;102193.28;6101982;23;20020;-87
2022/11/13 07:44:54;;;;;;;19.85;17.83;;;;;;;1.89;100.00;102186.25;6128762;23;20187;-85
2022/11/13 07:47:19;;;;;;;18.88;17.05;;;;;;;1.94;100.00;102200.28;6101663;23;20002;-86
2022/11/13 07:49:45;;;;;;;18.92;17.13;;;;;;;1.94;100.00;102195.03;6099037;23;20396;-87
2022/11/13 07:52:10;;;;;;;20.98;18.88;;;;;;;1.96;100.00;102185.41;6123876;23;20060;-87
2022/11/13 07:54:35;;;;;;;20.02;18.02;;;;;;;2.04;100.00;102190.69;6124658;23;20006;-85
2022/11/13 07:57:01;;;;;;;20.80;18.70;;;;;;;2.09;100.00;102194.25;6127238;23;20622;-86
2022/11/13 07:59:26;;;;;;;22.30;20.00;;;;;;;2.13;100.00;102195.13;6127773;23;20010;-86
2022/11/13 08:01:51;;;;;;;20.45;18.25;;;;;;;2.13;100.00;102193.41;6098242;23;20009;-88
2022/11/13 08:04:17;;;;;;;22.52;20.13;;;;;;;2.19;100.00;102187.28;6124042;23;20041;-85
2022/11/13 08:06:42;;;;;;;23.08;20.60;;;;;;;2.28;100.00;102195.22;6128845;23;20293;-85
2022/11/13 08:09:07;;;;;;;23.35;20.77;;;;;;;2.33;100.00;102188.22;6123949;23;20032;-87
2022/11/13 08:11:33;;;;;;;24.23;21.63;;;;;;;2.45;100.00;102190.03;6123877;23;20022;-88
2022/11/13 08:13:58;;;;;;;25.60;22.80;;;;;;;2.55;100.00;102186.59;6097044;23;20013;-87
2022/11/13 08:16:25;;;;;;;25.13;22.52;;;;;;;2.56;100.00;102184.84;6125288;23;20081;-87
2022/11/13 08:18:50;;;;;;;22.83;20.30;;;;;;;2.60;100.00;102176.97;6123722;23;20009;-87
2022/11/13 08:21:15;;;;;;;23.50;21.10;;;;;;;2.60;100.00;102169.06;6096516;23;20022;-86
2022/11/13 08:23:41;;;;;;;24.80;21.92;;;;;;;2.66;100.00;102178.72;6123909;23;20002;-87
2022/11/13 08:26:07;;;;;;;25.77;22.58;;;;;;;2.87;100.00;102176.16;6098065;23;20048;-85
2022/11/13 08:28:33;;;;;;;22.83;20.50;;;;;;;2.85;100.00;102172.66;6098447;23;20033;-86
2022/11/13 08:30:59;;;;;;;24.02;21.60;;;;;;;3.02;100.00;102164.78;6124440;23;20057;-86
2022/11/13 08:33:24;;;;;;;23.65;21.25;;;;;;;3.05;100.00;102158.63;6121964;23;20034;-85
2022/11/13 08:35:58;;;;;;;21.02;18.83;;;;;;;3.13;100.00;102173.56;6122853;23;20468;-85
2022/11/13 08:38:23;;;;;;;;;;;;;;;3.14;100.00;102169.19;6124052;23;20428;-85
2022/11/13 08:40:49;;;;;;;24.25;21.75;;;;;;;3.28;100.00;102156.91;6124408;23;19912;-85
2022/11/13 08:43:14;;;;;;;23.55;21.13;;;;;;;3.40;100.00;102171.84;6095656;23;20010;-86
2022/11/13 08:45:40;;;;;;;21.88;19.73;;;;;;;3.40;100.00;102169.19;6122198;23;20014;-86
2022/11/13 08:48:05;;;;;;;22.27;20.08;;;;;;;3.63;100.00;102174.44;6122851;23;19997;-86
2022/11/13 08:50:32;;;;;;;21.83;19.73;;;;;;;3.57;100.00;102161.28;6122073;23;20052;-86
2022/11/13 08:52:59;;;;;;;23.77;21.38;;;;;;;3.75;100.00;102162.13;6096107;23;20010;-85
2022/11/13 08:55:24;;;;;;;23.13;20.73;;;;;;;3.83;100.00;102159.50;6122507;23;20001;-86
2022/11/13 08:57:50;;;;;;;22.75;20.42;;;;;;;3.89;100.00;102151.59;6123515;23;20061;-86
2022/11/13 09:00:16;;;;;;;22.30;20.20;;;;;;;3.98;100.00;102156.84;6097026;23;20081;-86
2022/11/13 09:02:42;;;;;;;22.17;20.08;;;;;;;4.02;100.00;102154.19;6123284;23;20061;-86
2022/11/13 09:05:07;;;;;;;20.67;18.67;;;;;;;4.17;100.00;102151.50;6097125;23;20380;-84
2022/11/13 09:07:32;;;;;;;23.00;20.20;;;;;;;4.06;100.00;102133.09;6123963;23;20030;-87
2022/11/13 09:09:58;;;;;;;20.42;18.42;;;;;;;4.13;100.00;102134.81;6123538;23;20335;-86
2022/11/13 09:12:23;;;;;;;20.05;18.02;;;;;;;4.32;100.00;102147.94;6121506;23;20084;-84
2022/11/13 09:14:48;;;;;;;19.17;16.65;;;;;;;4.27;100.00;102147.97;6121960;23;20441;-85
2022/11/13 09:17:14;;;;;;;19.58;17.63;;;;;;;4.34;100.00;102148.78;6123253;23;19997;-85
2022/11/13 09:19:39;;;;;;;18.65;16.80;;;;;;;4.46;100.00;102146.97;6122869;23;20006;-86
2022/11/13 09:22:05;;;;;;;18.95;17.15;;;;;;;4.53;100.00;102139.06;6121260;23;20022;-85
2022/11/13 09:24:30;;;;;;;21.65;19.45;;;;;;;4.58;100.00;102140.78;6123229;23;20014;-86
2022/11/13 09:26:55;;;;;;;18.77;16.98;;;;;;;4.64;100.00;102139.84;6132630;23;20001;-86
2022/11/13 09:29:22;;;;;;;18.00;16.13;;;;;;;4.69;100.00;102140.72;6132084;23;20013;-86
2022/11/13 09:31:48;;;;;;;18.13;16.23;;;;;;;4.68;100.00;102142.50;6130678;23;20050;-86
2022/11/13 09:34:13;;;;;;;21.73;19.38;;;;;;;4.84;100.00;102139.75;6123095;23;20064;-85
2022/11/13 09:36:39;;;;;;;17.13;15.45;;;;;;;4.98;100.00;102137.91;6124399;23;19998;-85
2022/11/13 09:39:05;;;;;;;18.25;16.42;;;;;;;4.97;100.00;102141.41;6123532;23;20010;-84
2022/11/13 09:41:54;;;;;;;18.08;16.25;;;;;;;5.03;100.00;102136.09;6123661;23;20006;-86
2022/11/13 09:44:30;;;;;;;16.23;14.57;;;;;;;5.14;100.00;102133.38;6125433;23;20424;-85
2022/11/13 09:47:17;;;;;;;16.92;15.18;;;;;;;5.27;100.00;102139.41;6099679;23;20012;-86
2022/11/13 09:50:01;;;;;;;16.52;14.93;;;;;;;5.29;100.00;102137.66;6123978;23;20012;-84
2022/11/13 09:52:33;;;;;;;15.10;13.70;;;;;;;5.42;100.00;102137.53;6124137;23;20024;-84
2022/11/13 09:54:58;;;;;;;15.32;13.77;;;;;;;5.50;100.00;102130.41;6123292;23;20016;-85
2022/11/13 09:57:50;;;;;;;14.98;13.48;;;;;;;5.53;100.00;102140.09;6124705;23;20010;-85
2022/11/13 10:00:20;;;;;;;16.65;15.05;;;;;;;5.54;100.00;102128.63;6092376;23;20022;-85
2022/11/13 10:03:09;;;;;;;15.38;13.93;;;;;;;5.58;100.00;102137.41;6091602;23;20013;-85
2022/11/13 10:05:48;;;;;;;15.38;13.77;;;;;;;5.75;100.00;102133.69;6092668;23;20325;-85
2022/11/13 10:08:49;;;;;;;14.65;13.25;;;;;;;5.69;100.00;102131.13;6091944;23;20077;-86
2022/11/13 10:11:23;;;;;;;15.52;13.95;;;;;;;5.79;100.00;102129.25;6091140;23;20002;-86
2022/11/13 10:13:52;;;;;;;15.32;13.85;;;;;;;5.87;100.00;102126.53;6064654;23;20022;-85
2022/11/13 10:16:34;;;;;;;15.45;14.02;;;;;;;5.92;100.00;102130.91;6093171;23;20241;-85
2022/11/13 10:19:33;;;;;;;14.90;13.38;;;;;;;5.95;100.00;102125.59;6091935;23;19999;-84
2022/11/13 10:22:19;;;;;;;14.80;13.43;;;;;;;6.02;100.00;102110.56;6092763;23;20010;-86
2022/11/13 10:24:49;;;;;;;14.25;12.65;;;;;;;6.32;100.00;102122.50;6094053;23;19991;-85
2022/11/13 10:27:15;;;;;;;15.38;13.48;;;;;;;6.26;100.00;102119.06;6093895;23;20003;-85
2022/11/13 10:29:41;;;;;;;13.85;12.55;;;;;;;6.28;100.00;102118.16;6095049;23;20006;-85
2022/11/13 10:32:16;;;;;;;14.25;12.90;;;;;;;6.33;100.00;102115.44;6091924;23;20017;-85
2022/11/13 10:34:45;;;;;;;14.25;12.82;;;;;;;6.42;100.00;102116.19;6092964;23;20003;-85
2022/11/13 10:37:29;;;;;;;19.15;16.00;;;;;;;6.44;100.00;102116.19;6096635;23;20009;-85
2022/11/13 10:39:54;;;;;;;13.43;12.23;;;;;;;6.74;99.80;102115.75;6104113;23;20006;-85
2022/11/13 10:42:27;;;;;;;13.68;12.48;;;;;;;6.66;100.00;102115.00;6105426;23;20017;-84
2022/11/13 10:44:57;;;;;;;14.55;13.15;;;;;;;6.68;100.00;102110.53;6094342;23;20010;-86
2022/11/13 10:47:25;;;;;;;13.50;12.20;;;;;;;6.86;99.49;102112.06;6092896;23;20037;-85
2022/11/13 10:49:50;;;;;;;12.70;11.50;;;;;;;6.80;99.24;102095.38;6095652;23;20013;-85
2022/11/13 10:52:15;;;;;;;13.65;12.35;;;;;;;6.86;99.21;102106.75;6094149;23;19990;-85
2022/11/13 10:54:41;;;;;;;13.57;11.80;;;;;;;6.80;98.99;102090.09;6095205;23;20053;-86
2022/11/13 10:57:23;;;;;;;12.65;11.43;;;;;;;6.89;98.59;102090.81;6093406;23;20021;-85
2022/11/13 10:59:49;;;;;;;13.23;11.93;;;;;;;7.07;98.05;102086.16;6117612;23;20100;-85
2022/11/13 11:02:20;;;;;;;14.50;13.00;;;;;;;7.04;99.02;102083.53;6122232;23;20041;-85
2022/11/13 11:04:46;;;;;;;14.15;12.63;;;;;;;7.07;98.67;102078.22;6124067;23;20009;-85
2022/11/13 11:07:19;;;;;;;13.68;12.38;;;;;;;7.16;97.51;102062.16;6126387;23;19998;-86
2022/11/13 11:09:46;;;;;;;13.38;11.95;;;;;;;7.37;97.60;102067.06;6124498;23;20001;-86
2022/11/13 11:12:17;;;;;;;12.07;11.00;;;;;;;7.63;95.10;102052.47;6123041;23;20005;-86